Van Buren Point, NY (14166)

8:00 AM EDT on September 03, 2015 (GMT -0400)
Town of Pomfret | | Change Station
CLOSE
Current Station
Personal Weather Station
Location: Fredonia, NY
Elevation: 846 ft
Nearby Weather Stations

Elev 846 ft 42.42 °N, 79.35 °W | Updated 1 minute ago

Clear
Clear
73.2 °F
Feels Like 73.2 °F
N
0.0
Wind Variable Wind from ESE

Today
High -- | Low -- °F
--% Chance of Precip.
Yesterday
High -- | Low -- °F
Precip. -- in
6:44 AM 7:48 PM
Waning Gibbous, 71% visible
Pressure 29.96 in
Visibility 6.0 miles
Clouds Few 4100 ft
Dew Point 73 °F
Humidity 98%
Rainfall 0.00 in
Snow Depth Not available.
UV 1 out of 12
Pollen 10.30 out of 12
Air Quality Not available.
Flu Activity Not available.
METAR KDKK 031153Z AUTO 20005KT 6SM BR FEW041 22/20 A2997 RMK AO2 SLP144 T02170200 10222 20200 53007
Pressure 29.96 in
Visibility 6.0 miles
Clouds Few 4100 ft
Dew Point 73 °F
Humidity 98%
Rainfall 0.00 in
Snow Depth Not available.
UV 1 out of 12
Pollen 10.30 out of 12
Air Quality Not available.
Flu Activity Not available.
METAR KDKK 031153Z AUTO 20005KT 6SM BR FEW041 22/20 A2997 RMK AO2 SLP144 T02170200 10222 20200 53007

10-Day Weather Forecast

×

Almanac

Astronomy

Sep. 03, 2015 Rise Set
Actual Time
Civil Twilight
Nautical Twilight
Astronomical Twilight
Moon
Length of Visible Light
Length of Day
Tomorrow will be .
, % of the Moon is Illuminated

Today's Extremes

State Highs State Lows

Community

WunderPhotos

Upload Photos

1,851,941 photos uploaded!

WunderBlogs® & News

Nearby

Air Quality

  Air Quality AQ Index Pollutant
Not available.

Snow Depth

Station Depth Elevation

Earthquake Activity

City Distance Mag. Time & Date
Minimum magnitude displayed is 2.5.

Coastal Water Temperatures

Place Temperature

Stations

Nearby Weather Stations

Station Location Temp. Windchill Dew Point Humidity Wind Precip. Elev Updated Type